sensor_id;sensor_type;location;lat;lon;timestamp;P1;durP1;ratioP1;P2;durP2;ratioP2
29730;SDS011;16639;51.488;0.152;2024-02-21T00:01:29;21.48;;;4.50;;
29730;SDS011;16639;51.488;0.152;2024-02-21T00:03:57;17.38;;;4.65;;
29730;SDS011;16639;51.488;0.152;2024-02-21T00:06:24;15.90;;;4.07;;
29730;SDS011;16639;51.488;0.152;2024-02-21T00:08:52;14.00;;;4.47;;
29730;SDS011;16639;51.488;0.152;2024-02-21T00:11:20;27.75;;;4.35;;
29730;SDS011;16639;51.488;0.152;2024-02-21T00:13:47;21.70;;;3.72;;
29730;SDS011;16639;51.488;0.152;2024-02-21T00:16:19;15.40;;;4.43;;
29730;SDS011;16639;51.488;0.152;2024-02-21T00:18:47;18.80;;;4.75;;
29730;SDS011;16639;51.488;0.152;2024-02-21T00:21:15;20.13;;;4.32;;
29730;SDS011;16639;51.488;0.152;2024-02-21T00:23:45;13.05;;;4.40;;
29730;SDS011;16639;51.488;0.152;2024-02-21T00:26:13;24.35;;;4.50;;
29730;SDS011;16639;51.488;0.152;2024-02-21T00:28:41;7.82;;;3.67;;
29730;SDS011;16639;51.488;0.152;2024-02-21T00:31:10;19.63;;;3.67;;
29730;SDS011;16639;51.488;0.152;2024-02-21T00:33:38;18.05;;;3.75;;
29730;SDS011;16639;51.488;0.152;2024-02-21T00:36:05;15.70;;;3.88;;
29730;SDS011;16639;51.488;0.152;2024-02-21T00:38:33;16.35;;;4.22;;
29730;SDS011;16639;51.488;0.152;2024-02-21T00:41:01;15.80;;;4.20;;
29730;SDS011;16639;51.488;0.152;2024-02-21T00:43:29;19.10;;;4.70;;
29730;SDS011;16639;51.488;0.152;2024-02-21T00:45:56;21.00;;;4.78;;
29730;SDS011;16639;51.488;0.152;2024-02-21T00:48:24;17.92;;;4.15;;
29730;SDS011;16639;51.488;0.152;2024-02-21T00:50:54;14.70;;;4.28;;
29730;SDS011;16639;51.488;0.152;2024-02-21T00:53:21;23.02;;;4.20;;
29730;SDS011;16639;51.488;0.152;2024-02-21T00:55:49;19.05;;;4.80;;
29730;SDS011;16639;51.488;0.152;2024-02-21T00:58:16;14.48;;;3.85;;
29730;SDS011;16639;51.488;0.152;2024-02-21T01:00:44;12.60;;;3.67;;
29730;SDS011;16639;51.488;0.152;2024-02-21T01:03:12;28.73;;;4.53;;
29730;SDS011;16639;51.488;0.152;2024-02-21T01:05:39;17.27;;;4.78;;
29730;SDS011;16639;51.488;0.152;2024-02-21T01:08:07;17.92;;;4.22;;
29730;SDS011;16639;51.488;0.152;2024-02-21T01:10:34;20.83;;;4.00;;
29730;SDS011;16639;51.488;0.152;2024-02-21T01:13:01;13.20;;;4.38;;
29730;SDS011;16639;51.488;0.152;2024-02-21T01:15:29;18.02;;;4.00;;
29730;SDS011;16639;51.488;0.152;2024-02-21T01:17:57;16.20;;;4.55;;
29730;SDS011;16639;51.488;0.152;2024-02-21T01:20:24;17.38;;;4.10;;
29730;SDS011;16639;51.488;0.152;2024-02-21T01:22:52;17.88;;;4.35;;
29730;SDS011;16639;51.488;0.152;2024-02-21T01:25:19;20.33;;;4.28;;
29730;SDS011;16639;51.488;0.152;2024-02-21T01:27:47;15.85;;;4.28;;
29730;SDS011;16639;51.488;0.152;2024-02-21T01:30:14;19.00;;;3.75;;
29730;SDS011;16639;51.488;0.152;2024-02-21T01:32:41;12.23;;;3.67;;
29730;SDS011;16639;51.488;0.152;2024-02-21T01:35:09;20.77;;;3.97;;
29730;SDS011;16639;51.488;0.152;2024-02-21T01:37:36;22.08;;;4.57;;
29730;SDS011;16639;51.488;0.152;2024-02-21T01:40:04;23.70;;;4.78;;
29730;SDS011;16639;51.488;0.152;2024-02-21T01:42:32;19.50;;;4.13;;
29730;SDS011;16639;51.488;0.152;2024-02-21T01:44:59;16.50;;;3.75;;
29730;SDS011;16639;51.488;0.152;2024-02-21T01:47:27;16.17;;;3.88;;
29730;SDS011;16639;51.488;0.152;2024-02-21T01:49:54;17.05;;;4.47;;
29730;SDS011;16639;51.488;0.152;2024-02-21T01:52:22;17.58;;;4.03;;
29730;SDS011;16639;51.488;0.152;2024-02-21T01:54:50;15.70;;;3.85;;
29730;SDS011;16639;51.488;0.152;2024-02-21T01:57:17;15.30;;;4.07;;
29730;SDS011;16639;51.488;0.152;2024-02-21T01:59:49;24.85;;;3.72;;
29730;SDS011;16639;51.488;0.152;2024-02-21T02:02:27;9.93;;;3.78;;
29730;SDS011;16639;51.488;0.152;2024-02-21T02:04:55;22.70;;;5.07;;
29730;SDS011;16639;51.488;0.152;2024-02-21T02:07:23;23.15;;;4.63;;
29730;SDS011;16639;51.488;0.152;2024-02-21T02:09:51;26.77;;;4.68;;
29730;SDS011;16639;51.488;0.152;2024-02-21T02:12:19;19.10;;;4.43;;
29730;SDS011;16639;51.488;0.152;2024-02-21T02:14:52;18.83;;;5.05;;
29730;SDS011;16639;51.488;0.152;2024-02-21T02:17:27;19.10;;;4.25;;
29730;SDS011;16639;51.488;0.152;2024-02-21T02:19:55;21.30;;;4.53;;
29730;SDS011;16639;51.488;0.152;2024-02-21T02:22:25;26.13;;;4.57;;
29730;SDS011;16639;51.488;0.152;2024-02-21T02:24:56;21.13;;;5.30;;
29730;SDS011;16639;51.488;0.152;2024-02-21T02:27:24;16.33;;;5.10;;
29730;SDS011;16639;51.488;0.152;2024-02-21T02:29:51;26.98;;;4.60;;
29730;SDS011;16639;51.488;0.152;2024-02-21T02:32:19;19.35;;;4.15;;
29730;SDS011;16639;51.488;0.152;2024-02-21T02:34:46;17.33;;;4.28;;
29730;SDS011;16639;51.488;0.152;2024-02-21T02:37:14;12.10;;;4.18;;
29730;SDS011;16639;51.488;0.152;2024-02-21T02:39:41;24.73;;;4.15;;
29730;SDS011;16639;51.488;0.152;2024-02-21T02:42:09;12.75;;;3.85;;
29730;SDS011;16639;51.488;0.152;2024-02-21T02:44:36;19.60;;;4.70;;
29730;SDS011;16639;51.488;0.152;2024-02-21T02:47:04;19.58;;;4.93;;
29730;SDS011;16639;51.488;0.152;2024-02-21T02:49:31;19.73;;;4.85;;
29730;SDS011;16639;51.488;0.152;2024-02-21T02:51:59;19.63;;;5.20;;
29730;SDS011;16639;51.488;0.152;2024-02-21T02:54:27;19.38;;;4.43;;
29730;SDS011;16639;51.488;0.152;2024-02-21T02:56:55;17.52;;;5.40;;
29730;SDS011;16639;51.488;0.152;2024-02-21T02:59:22;24.00;;;4.85;;
29730;SDS011;16639;51.488;0.152;2024-02-21T03:01:49;18.00;;;5.13;;
29730;SDS011;16639;51.488;0.152;2024-02-21T03:04:17;22.85;;;4.40;;
29730;SDS011;16639;51.488;0.152;2024-02-21T03:06:44;15.55;;;5.35;;
29730;SDS011;16639;51.488;0.152;2024-02-21T03:09:12;14.63;;;3.83;;
29730;SDS011;16639;51.488;0.152;2024-02-21T03:11:39;26.90;;;4.95;;
29730;SDS011;16639;51.488;0.152;2024-02-21T03:14:08;20.63;;;5.85;;
29730;SDS011;16639;51.488;0.152;2024-02-21T03:16:35;15.68;;;4.50;;
29730;SDS011;16639;51.488;0.152;2024-02-21T03:19:03;20.80;;;5.50;;
29730;SDS011;16639;51.488;0.152;2024-02-21T03:21:30;19.75;;;5.47;;
29730;SDS011;16639;51.488;0.152;2024-02-21T03:23:58;12.15;;;3.38;;
29730;SDS011;16639;51.488;0.152;2024-02-21T03:26:25;16.17;;;3.85;;
29730;SDS011;16639;51.488;0.152;2024-02-21T03:28:52;16.58;;;4.50;;
29730;SDS011;16639;51.488;0.152;2024-02-21T03:31:20;22.05;;;5.50;;
29730;SDS011;16639;51.488;0.152;2024-02-21T03:33:47;19.00;;;3.85;;
29730;SDS011;16639;51.488;0.152;2024-02-21T03:36:15;19.27;;;4.63;;
29730;SDS011;16639;51.488;0.152;2024-02-21T03:38:43;17.50;;;4.22;;
29730;SDS011;16639;51.488;0.152;2024-02-21T03:41:11;15.65;;;4.25;;
29730;SDS011;16639;51.488;0.152;2024-02-21T03:43:39;12.50;;;3.30;;
29730;SDS011;16639;51.488;0.152;2024-02-21T03:46:07;23.80;;;4.70;;
29730;SDS011;16639;51.488;0.152;2024-02-21T03:48:35;24.35;;;3.72;;
29730;SDS011;16639;51.488;0.152;2024-02-21T03:51:03;11.52;;;3.55;;
29730;SDS011;16639;51.488;0.152;2024-02-21T03:53:31;17.48;;;4.60;;
29730;SDS011;16639;51.488;0.152;2024-02-21T03:56:02;16.45;;;4.38;;
29730;SDS011;16639;51.488;0.152;2024-02-21T03:58:31;19.90;;;4.38;;
29730;SDS011;16639;51.488;0.152;2024-02-21T04:01:02;12.43;;;3.50;;
29730;SDS011;16639;51.488;0.152;2024-02-21T04:03:30;49.72;;;7.22;;
29730;SDS011;16639;51.488;0.152;2024-02-21T04:05:58;12.93;;;3.97;;
29730;SDS011;16639;51.488;0.152;2024-02-21T04:08:25;22.08;;;4.43;;
29730;SDS011;16639;51.488;0.152;2024-02-21T04:10:52;15.30;;;4.05;;
29730;SDS011;16639;51.488;0.152;2024-02-21T04:13:20;24.55;;;5.05;;
29730;SDS011;16639;51.488;0.152;2024-02-21T04:15:49;14.82;;;3.90;;
29730;SDS011;16639;51.488;0.152;2024-02-21T04:18:17;17.50;;;4.93;;
29730;SDS011;16639;51.488;0.152;2024-02-21T04:20:46;12.75;;;3.97;;
29730;SDS011;16639;51.488;0.152;2024-02-21T04:23:14;16.85;;;4.13;;
29730;SDS011;16639;51.488;0.152;2024-02-21T04:25:41;15.48;;;3.72;;
29730;SDS011;16639;51.488;0.152;2024-02-21T04:28:09;17.38;;;3.90;;
29730;SDS011;16639;51.488;0.152;2024-02-21T04:30:36;14.88;;;3.60;;
29730;SDS011;16639;51.488;0.152;2024-02-21T04:33:03;15.50;;;3.58;;
29730;SDS011;16639;51.488;0.152;2024-02-21T04:35:31;11.90;;;2.92;;
29730;SDS011;16639;51.488;0.152;2024-02-21T04:37:58;14.13;;;3.53;;
29730;SDS011;16639;51.488;0.152;2024-02-21T04:40:26;13.70;;;3.30;;
29730;SDS011;16639;51.488;0.152;2024-02-21T04:42:54;15.77;;;3.75;;
29730;SDS011;16639;51.488;0.152;2024-02-21T04:45:21;9.40;;;3.33;;
29730;SDS011;16639;51.488;0.152;2024-02-21T04:47:49;12.30;;;4.40;;
29730;SDS011;16639;51.488;0.152;2024-02-21T04:50:16;15.15;;;3.83;;
29730;SDS011;16639;51.488;0.152;2024-02-21T04:52:45;17.13;;;3.65;;
29730;SDS011;16639;51.488;0.152;2024-02-21T04:55:12;13.75;;;3.40;;
29730;SDS011;16639;51.488;0.152;2024-02-21T04:57:40;7.03;;;3.08;;
29730;SDS011;16639;51.488;0.152;2024-02-21T05:00:07;10.63;;;3.28;;
29730;SDS011;16639;51.488;0.152;2024-02-21T05:02:36;6.43;;;3.35;;
29730;SDS011;16639;51.488;0.152;2024-02-21T05:05:03;16.17;;;3.00;;
29730;SDS011;16639;51.488;0.152;2024-02-21T05:07:31;10.60;;;3.45;;
29730;SDS011;16639;51.488;0.152;2024-02-21T05:09:58;9.52;;;2.92;;
29730;SDS011;16639;51.488;0.152;2024-02-21T05:12:26;13.45;;;2.72;;
29730;SDS011;16639;51.488;0.152;2024-02-21T05:14:53;13.68;;;3.55;;
29730;SDS011;16639;51.488;0.152;2024-02-21T05:17:21;14.60;;;3.13;;
29730;SDS011;16639;51.488;0.152;2024-02-21T05:19:49;9.93;;;2.80;;
29730;SDS011;16639;51.488;0.152;2024-02-21T05:22:17;13.40;;;4.50;;
29730;SDS011;16639;51.488;0.152;2024-02-21T05:24:44;10.90;;;2.97;;
29730;SDS011;16639;51.488;0.152;2024-02-21T05:27:12;10.93;;;3.05;;
29730;SDS011;16639;51.488;0.152;2024-02-21T05:29:39;15.85;;;2.92;;
29730;SDS011;16639;51.488;0.152;2024-02-21T05:32:06;16.67;;;3.75;;
29730;SDS011;16639;51.488;0.152;2024-02-21T05:34:34;15.13;;;3.75;;
29730;SDS011;16639;51.488;0.152;2024-02-21T05:37:01;10.75;;;3.05;;
29730;SDS011;16639;51.488;0.152;2024-02-21T05:39:29;13.85;;;3.67;;
29730;SDS011;16639;51.488;0.152;2024-02-21T05:41:56;8.82;;;2.90;;
29730;SDS011;16639;51.488;0.152;2024-02-21T05:44:24;13.55;;;3.28;;
29730;SDS011;16639;51.488;0.152;2024-02-21T05:46:52;9.45;;;3.00;;
29730;SDS011;16639;51.488;0.152;2024-02-21T05:49:20;15.88;;;3.05;;
29730;SDS011;16639;51.488;0.152;2024-02-21T05:51:47;8.18;;;2.55;;
29730;SDS011;16639;51.488;0.152;2024-02-21T05:54:15;8.02;;;3.15;;
29730;SDS011;16639;51.488;0.152;2024-02-21T05:56:45;9.18;;;2.85;;
29730;SDS011;16639;51.488;0.152;2024-02-21T05:59:13;15.25;;;2.95;;
29730;SDS011;16639;51.488;0.152;2024-02-21T06:01:41;8.65;;;2.88;;
29730;SDS011;16639;51.488;0.152;2024-02-21T06:04:09;14.32;;;2.90;;
29730;SDS011;16639;51.488;0.152;2024-02-21T06:06:37;10.90;;;3.72;;
29730;SDS011;16639;51.488;0.152;2024-02-21T06:09:05;16.67;;;3.60;;
29730;SDS011;16639;51.488;0.152;2024-02-21T06:11:33;13.65;;;3.05;;
29730;SDS011;16639;51.488;0.152;2024-02-21T06:14:02;16.75;;;3.70;;
29730;SDS011;16639;51.488;0.152;2024-02-21T06:16:29;6.80;;;2.92;;
29730;SDS011;16639;51.488;0.152;2024-02-21T06:18:57;14.93;;;3.42;;
29730;SDS011;16639;51.488;0.152;2024-02-21T06:21:30;12.77;;;3.70;;
29730;SDS011;16639;51.488;0.152;2024-02-21T06:23:59;12.30;;;3.50;;
29730;SDS011;16639;51.488;0.152;2024-02-21T06:26:27;17.92;;;3.20;;
29730;SDS011;16639;51.488;0.152;2024-02-21T06:28:54;14.40;;;3.03;;
29730;SDS011;16639;51.488;0.152;2024-02-21T06:31:22;9.88;;;3.15;;
29730;SDS011;16639;51.488;0.152;2024-02-21T06:34:06;8.55;;;3.30;;
29730;SDS011;16639;51.488;0.152;2024-02-21T06:36:34;10.82;;;3.10;;
29730;SDS011;16639;51.488;0.152;2024-02-21T06:39:01;9.68;;;3.60;;
29730;SDS011;16639;51.488;0.152;2024-02-21T06:41:34;9.35;;;3.55;;
29730;SDS011;16639;51.488;0.152;2024-02-21T06:44:02;7.47;;;3.45;;
29730;SDS011;16639;51.488;0.152;2024-02-21T06:46:30;10.07;;;3.13;;
29730;SDS011;16639;51.488;0.152;2024-02-21T06:49:00;8.02;;;2.95;;
29730;SDS011;16639;51.488;0.152;2024-02-21T06:51:30;7.55;;;2.67;;
29730;SDS011;16639;51.488;0.152;2024-02-21T06:53:57;9.82;;;2.67;;
29730;SDS011;16639;51.488;0.152;2024-02-21T06:56:25;8.00;;;2.58;;
29730;SDS011;16639;51.488;0.152;2024-02-21T06:58:56;8.48;;;1.95;;
29730;SDS011;16639;51.488;0.152;2024-02-21T07:01:24;7.28;;;2.85;;
29730;SDS011;16639;51.488;0.152;2024-02-21T07:03:52;10.00;;;2.53;;
29730;SDS011;16639;51.488;0.152;2024-02-21T07:06:19;6.97;;;2.30;;
29730;SDS011;16639;51.488;0.152;2024-02-21T07:08:47;6.97;;;2.30;;
29730;SDS011;16639;51.488;0.152;2024-02-21T07:11:15;9.00;;;2.13;;
29730;SDS011;16639;51.488;0.152;2024-02-21T07:13:43;3.83;;;2.05;;
29730;SDS011;16639;51.488;0.152;2024-02-21T07:16:11;7.70;;;2.22;;
29730;SDS011;16639;51.488;0.152;2024-02-21T07:18:38;5.05;;;1.83;;
29730;SDS011;16639;51.488;0.152;2024-02-21T07:21:08;6.72;;;1.88;;
29730;SDS011;16639;51.488;0.152;2024-02-21T07:23:35;4.88;;;2.55;;
29730;SDS011;16639;51.488;0.152;2024-02-21T07:26:03;5.47;;;2.03;;
29730;SDS011;16639;51.488;0.152;2024-02-21T07:28:31;4.72;;;2.38;;
29730;SDS011;16639;51.488;0.152;2024-02-21T07:30:59;6.53;;;2.10;;
29730;SDS011;16639;51.488;0.152;2024-02-21T07:33:27;8.02;;;3.58;;
29730;SDS011;16639;51.488;0.152;2024-02-21T07:35:56;5.45;;;2.10;;
29730;SDS011;16639;51.488;0.152;2024-02-21T07:38:24;8.43;;;1.95;;
29730;SDS011;16639;51.488;0.152;2024-02-21T07:40:52;5.63;;;2.45;;
29730;SDS011;16639;51.488;0.152;2024-02-21T07:43:19;4.50;;;1.90;;
29730;SDS011;16639;51.488;0.152;2024-02-21T07:45:49;7.50;;;2.80;;
29730;SDS011;16639;51.488;0.152;2024-02-21T07:48:17;7.10;;;2.40;;
29730;SDS011;16639;51.488;0.152;2024-02-21T07:50:45;8.65;;;2.65;;
29730;SDS011;16639;51.488;0.152;2024-02-21T07:53:14;16.98;;;4.80;;
29730;SDS011;16639;51.488;0.152;2024-02-21T07:55:42;5.90;;;2.75;;
29730;SDS011;16639;51.488;0.152;2024-02-21T07:58:10;10.52;;;2.70;;
29730;SDS011;16639;51.488;0.152;2024-02-21T08:00:37;10.27;;;2.78;;
29730;SDS011;16639;51.488;0.152;2024-02-21T08:03:04;8.43;;;3.05;;
29730;SDS011;16639;51.488;0.152;2024-02-21T08:05:34;8.30;;;2.88;;
29730;SDS011;16639;51.488;0.152;2024-02-21T08:08:02;14.50;;;3.45;;
29730;SDS011;16639;51.488;0.152;2024-02-21T08:10:30;10.50;;;3.53;;
29730;SDS011;16639;51.488;0.152;2024-02-21T08:12:58;12.07;;;3.00;;
29730;SDS011;16639;51.488;0.152;2024-02-21T08:15:25;7.25;;;2.42;;
29730;SDS011;16639;51.488;0.152;2024-02-21T08:17:57;7.43;;;2.60;;
29730;SDS011;16639;51.488;0.152;2024-02-21T08:20:28;11.20;;;3.28;;
29730;SDS011;16639;51.488;0.152;2024-02-21T08:22:56;6.13;;;3.28;;
29730;SDS011;16639;51.488;0.152;2024-02-21T08:25:23;12.63;;;3.15;;
29730;SDS011;16639;51.488;0.152;2024-02-21T08:27:51;5.85;;;2.60;;
29730;SDS011;16639;51.488;0.152;2024-02-21T08:30:21;9.10;;;2.83;;
29730;SDS011;16639;51.488;0.152;2024-02-21T08:32:49;5.72;;;2.95;;
29730;SDS011;16639;51.488;0.152;2024-02-21T08:35:16;5.38;;;3.17;;
29730;SDS011;16639;51.488;0.152;2024-02-21T08:37:49;11.68;;;5.18;;
29730;SDS011;16639;51.488;0.152;2024-02-21T08:40:17;9.57;;;3.20;;
29730;SDS011;16639;51.488;0.152;2024-02-21T08:42:46;13.98;;;3.38;;
29730;SDS011;16639;51.488;0.152;2024-02-21T08:45:14;6.95;;;3.88;;
29730;SDS011;16639;51.488;0.152;2024-02-21T08:47:41;17.02;;;3.17;;
29730;SDS011;16639;51.488;0.152;2024-02-21T08:50:09;8.30;;;3.20;;
29730;SDS011;16639;51.488;0.152;2024-02-21T08:52:53;10.40;;;4.20;;
29730;SDS011;16639;51.488;0.152;2024-02-21T08:55:21;15.55;;;3.95;;
29730;SDS011;16639;51.488;0.152;2024-02-21T08:57:54;16.83;;;4.28;;
29730;SDS011;16639;51.488;0.152;2024-02-21T09:00:22;9.25;;;3.38;;
29730;SDS011;16639;51.488;0.152;2024-02-21T09:02:54;11.85;;;3.40;;
29730;SDS011;16639;51.488;0.152;2024-02-21T09:05:24;8.07;;;3.00;;
29730;SDS011;16639;51.488;0.152;2024-02-21T09:07:53;9.38;;;2.72;;
29730;SDS011;16639;51.488;0.152;2024-02-21T09:10:21;9.63;;;4.53;;
29730;SDS011;16639;51.488;0.152;2024-02-21T09:12:48;10.82;;;3.67;;
29730;SDS011;16639;51.488;0.152;2024-02-21T09:15:16;8.65;;;3.30;;
29730;SDS011;16639;51.488;0.152;2024-02-21T09:17:44;8.65;;;3.03;;
29730;SDS011;16639;51.488;0.152;2024-02-21T09:20:11;12.48;;;2.75;;
29730;SDS011;16639;51.488;0.152;2024-02-21T09:22:39;16.02;;;2.95;;
29730;SDS011;16639;51.488;0.152;2024-02-21T09:25:08;9.48;;;2.65;;
29730;SDS011;16639;51.488;0.152;2024-02-21T09:27:38;9.40;;;2.67;;
29730;SDS011;16639;51.488;0.152;2024-02-21T09:30:06;8.27;;;2.50;;
29730;SDS011;16639;51.488;0.152;2024-02-21T09:32:34;11.32;;;2.50;;
29730;SDS011;16639;51.488;0.152;2024-02-21T09:35:04;7.88;;;2.40;;
29730;SDS011;16639;51.488;0.152;2024-02-21T09:37:35;7.70;;;2.20;;
29730;SDS011;16639;51.488;0.152;2024-02-21T09:40:03;10.63;;;2.80;;
29730;SDS011;16639;51.488;0.152;2024-02-21T09:42:36;9.15;;;2.72;;
29730;SDS011;16639;51.488;0.152;2024-02-21T09:45:15;11.18;;;3.03;;
29730;SDS011;16639;51.488;0.152;2024-02-21T09:50:49;21.00;;;2.58;;
29730;SDS011;16639;51.488;0.152;2024-02-21T09:53:18;10.00;;;2.15;;
29730;SDS011;16639;51.488;0.152;2024-02-21T09:55:46;10.63;;;3.10;;
29730;SDS011;16639;51.488;0.152;2024-02-21T09:58:15;7.95;;;3.08;;
29730;SDS011;16639;51.488;0.152;2024-02-21T10:00:43;16.33;;;3.13;;
29730;SDS011;16639;51.488;0.152;2024-02-21T10:03:10;13.32;;;2.70;;
29730;SDS011;16639;51.488;0.152;2024-02-21T10:05:38;7.25;;;2.47;;
29730;SDS011;16639;51.488;0.152;2024-02-21T10:08:06;12.02;;;2.25;;
29730;SDS011;16639;51.488;0.152;2024-02-21T10:10:41;6.60;;;2.72;;
29730;SDS011;16639;51.488;0.152;2024-02-21T10:13:28;9.25;;;3.00;;
29730;SDS011;16639;51.488;0.152;2024-02-21T10:18:34;5.78;;;2.35;;
29730;SDS011;16639;51.488;0.152;2024-02-21T10:21:02;10.48;;;2.22;;
29730;SDS011;16639;51.488;0.152;2024-02-21T10:23:48;9.00;;;2.97;;
29730;SDS011;16639;51.488;0.152;2024-02-21T10:26:16;4.68;;;1.98;;
29730;SDS011;16639;51.488;0.152;2024-02-21T10:28:46;6.13;;;1.75;;
29730;SDS011;16639;51.488;0.152;2024-02-21T10:31:22;3.78;;;1.92;;
29730;SDS011;16639;51.488;0.152;2024-02-21T10:33:58;9.20;;;2.20;;
29730;SDS011;16639;51.488;0.152;2024-02-21T10:36:32;2.58;;;2.05;;
29730;SDS011;16639;51.488;0.152;2024-02-21T10:39:01;10.00;;;2.00;;
29730;SDS011;16639;51.488;0.152;2024-02-21T10:41:28;4.80;;;2.15;;
29730;SDS011;16639;51.488;0.152;2024-02-21T10:43:58;6.90;;;1.83;;
29730;SDS011;16639;51.488;0.152;2024-02-21T10:46:29;4.55;;;1.77;;
29730;SDS011;16639;51.488;0.152;2024-02-21T10:49:10;8.32;;;1.50;;
29730;SDS011;16639;51.488;0.152;2024-02-21T10:51:43;2.35;;;1.65;;
29730;SDS011;16639;51.488;0.152;2024-02-21T10:57:25;4.90;;;1.73;;
29730;SDS011;16639;51.488;0.152;2024-02-21T10:59:55;8.18;;;1.55;;
29730;SDS011;16639;51.488;0.152;2024-02-21T11:02:25;2.80;;;1.65;;
29730;SDS011;16639;51.488;0.152;2024-02-21T11:04:57;10.00;;;1.90;;
29730;SDS011;16639;51.488;0.152;2024-02-21T11:07:25;4.55;;;1.48;;
29730;SDS011;16639;51.488;0.152;2024-02-21T11:09:53;9.63;;;2.10;;
29730;SDS011;16639;51.488;0.152;2024-02-21T11:12:23;5.50;;;1.25;;
29730;SDS011;16639;51.488;0.152;2024-02-21T11:15:03;5.47;;;1.27;;
29730;SDS011;16639;51.488;0.152;2024-02-21T11:17:33;5.47;;;2.00;;
29730;SDS011;16639;51.488;0.152;2024-02-21T11:20:15;2.67;;;1.40;;
29730;SDS011;16639;51.488;0.152;2024-02-21T11:22:43;3.75;;;1.52;;
29730;SDS011;16639;51.488;0.152;2024-02-21T11:25:11;3.05;;;1.50;;
29730;SDS011;16639;51.488;0.152;2024-02-21T11:27:38;2.42;;;1.48;;
29730;SDS011;16639;51.488;0.152;2024-02-21T11:30:13;2.90;;;1.42;;
29730;SDS011;16639;51.488;0.152;2024-02-21T11:32:41;7.00;;;1.27;;
29730;SDS011;16639;51.488;0.152;2024-02-21T11:35:08;1.60;;;1.20;;
29730;SDS011;16639;51.488;0.152;2024-02-21T11:37:47;1.80;;;1.10;;
29730;SDS011;16639;51.488;0.152;2024-02-21T11:40:14;4.43;;;1.52;;
29730;SDS011;16639;51.488;0.152;2024-02-21T11:42:41;1.60;;;1.27;;
29730;SDS011;16639;51.488;0.152;2024-02-21T11:45:09;5.80;;;1.30;;
29730;SDS011;16639;51.488;0.152;2024-02-21T11:47:36;5.43;;;0.90;;
29730;SDS011;16639;51.488;0.152;2024-02-21T11:50:12;3.20;;;1.10;;
29730;SDS011;16639;51.488;0.152;2024-02-21T11:52:43;4.93;;;1.13;;
29730;SDS011;16639;51.488;0.152;2024-02-21T11:55:10;2.60;;;1.15;;
29730;SDS011;16639;51.488;0.152;2024-02-21T11:57:38;1.98;;;1.02;;
29730;SDS011;16639;51.488;0.152;2024-02-21T12:00:12;4.68;;;1.30;;
29730;SDS011;16639;51.488;0.152;2024-02-21T12:02:43;1.70;;;0.95;;
29730;SDS011;16639;51.488;0.152;2024-02-21T12:05:12;6.93;;;1.13;;
29730;SDS011;16639;51.488;0.152;2024-02-21T12:07:40;2.38;;;1.20;;
29730;SDS011;16639;51.488;0.152;2024-02-21T12:12:37;1.70;;;0.80;;
29730;SDS011;16639;51.488;0.152;2024-02-21T12:15:06;3.97;;;1.30;;
29730;SDS011;16639;51.488;0.152;2024-02-21T12:17:34;4.15;;;1.30;;
29730;SDS011;16639;51.488;0.152;2024-02-21T12:20:03;5.45;;;0.90;;
29730;SDS011;16639;51.488;0.152;2024-02-21T12:22:32;1.50;;;1.00;;
29730;SDS011;16639;51.488;0.152;2024-02-21T12:25:02;2.33;;;0.80;;
29730;SDS011;16639;51.488;0.152;2024-02-21T12:27:31;3.40;;;0.93;;
29730;SDS011;16639;51.488;0.152;2024-02-21T12:29:58;1.45;;;1.10;;
29730;SDS011;16639;51.488;0.152;2024-02-21T12:32:26;3.08;;;0.90;;
29730;SDS011;16639;51.488;0.152;2024-02-21T12:34:53;8.40;;;1.35;;
29730;SDS011;16639;51.488;0.152;2024-02-21T12:37:21;4.07;;;1.17;;
29730;SDS011;16639;51.488;0.152;2024-02-21T12:39:51;1.20;;;1.08;;
29730;SDS011;16639;51.488;0.152;2024-02-21T12:42:18;3.00;;;0.88;;
29730;SDS011;16639;51.488;0.152;2024-02-21T12:44:46;6.75;;;1.58;;
29730;SDS011;16639;51.488;0.152;2024-02-21T12:47:13;0.95;;;0.90;;
29730;SDS011;16639;51.488;0.152;2024-02-21T12:49:41;2.50;;;1.05;;
29730;SDS011;16639;51.488;0.152;2024-02-21T12:52:12;3.55;;;0.98;;
29730;SDS011;16639;51.488;0.152;2024-02-21T12:54:40;1.98;;;1.27;;
29730;SDS011;16639;51.488;0.152;2024-02-21T12:57:09;5.22;;;3.05;;
29730;SDS011;16639;51.488;0.152;2024-02-21T12:59:36;1.98;;;1.42;;
29730;SDS011;16639;51.488;0.152;2024-02-21T13:02:04;6.35;;;2.35;;
29730;SDS011;16639;51.488;0.152;2024-02-21T13:04:31;1.10;;;1.00;;
29730;SDS011;16639;51.488;0.152;2024-02-21T13:06:59;1.95;;;1.20;;
29730;SDS011;16639;51.488;0.152;2024-02-21T13:09:26;1.92;;;0.90;;
29730;SDS011;16639;51.488;0.152;2024-02-21T13:11:54;5.15;;;1.08;;
29730;SDS011;16639;51.488;0.152;2024-02-21T13:14:21;4.05;;;1.15;;
29730;SDS011;16639;51.488;0.152;2024-02-21T13:16:49;2.75;;;1.20;;
29730;SDS011;16639;51.488;0.152;2024-02-21T13:19:17;4.93;;;1.27;;
29730;SDS011;16639;51.488;0.152;2024-02-21T13:21:45;7.03;;;1.40;;
29730;SDS011;16639;51.488;0.152;2024-02-21T13:24:12;4.10;;;1.00;;
29730;SDS011;16639;51.488;0.152;2024-02-21T13:26:40;3.95;;;1.02;;
29730;SDS011;16639;51.488;0.152;2024-02-21T13:29:07;1.92;;;0.90;;
29730;SDS011;16639;51.488;0.152;2024-02-21T13:31:35;1.48;;;1.10;;
29730;SDS011;16639;51.488;0.152;2024-02-21T13:34:02;2.53;;;1.20;;
29730;SDS011;16639;51.488;0.152;2024-02-21T13:36:30;3.42;;;1.02;;
29730;SDS011;16639;51.488;0.152;2024-02-21T13:38:57;1.55;;;1.13;;
29730;SDS011;16639;51.488;0.152;2024-02-21T13:41:25;1.80;;;1.20;;
29730;SDS011;16639;51.488;0.152;2024-02-21T13:43:53;2.15;;;1.10;;
29730;SDS011;16639;51.488;0.152;2024-02-21T13:46:21;1.30;;;1.20;;
29730;SDS011;16639;51.488;0.152;2024-02-21T13:48:49;1.38;;;0.95;;
29730;SDS011;16639;51.488;0.152;2024-02-21T13:51:16;2.10;;;0.90;;
29730;SDS011;16639;51.488;0.152;2024-02-21T13:53:44;1.05;;;0.73;;
29730;SDS011;16639;51.488;0.152;2024-02-21T13:56:11;2.83;;;0.73;;
29730;SDS011;16639;51.488;0.152;2024-02-21T13:58:39;3.33;;;0.95;;
29730;SDS011;16639;51.488;0.152;2024-02-21T14:01:06;0.75;;;0.73;;
29730;SDS011;16639;51.488;0.152;2024-02-21T14:03:33;1.00;;;0.70;;
29730;SDS011;16639;51.488;0.152;2024-02-21T14:06:01;2.90;;;0.98;;
29730;SDS011;16639;51.488;0.152;2024-02-21T14:08:29;1.35;;;1.00;;
29730;SDS011;16639;51.488;0.152;2024-02-21T14:10:56;1.48;;;0.90;;
29730;SDS011;16639;51.488;0.152;2024-02-21T14:13:26;1.35;;;0.82;;
29730;SDS011;16639;51.488;0.152;2024-02-21T14:15:53;1.70;;;0.82;;
29730;SDS011;16639;51.488;0.152;2024-02-21T14:18:21;1.35;;;0.85;;
29730;SDS011;16639;51.488;0.152;2024-02-21T14:20:48;2.88;;;1.35;;
29730;SDS011;16639;51.488;0.152;2024-02-21T14:23:16;7.07;;;1.00;;
29730;SDS011;16639;51.488;0.152;2024-02-21T14:25:43;5.25;;;0.85;;
29730;SDS011;16639;51.488;0.152;2024-02-21T14:28:11;6.72;;;0.82;;
29730;SDS011;16639;51.488;0.152;2024-02-21T14:30:39;1.92;;;0.95;;
29730;SDS011;16639;51.488;0.152;2024-02-21T14:33:07;3.92;;;1.13;;
29730;SDS011;16639;51.488;0.152;2024-02-21T14:35:35;4.10;;;1.30;;
29730;SDS011;16639;51.488;0.152;2024-02-21T14:38:02;3.88;;;1.10;;
29730;SDS011;16639;51.488;0.152;2024-02-21T14:40:30;3.05;;;1.20;;
29730;SDS011;16639;51.488;0.152;2024-02-21T14:42:58;6.13;;;1.05;;
29730;SDS011;16639;51.488;0.152;2024-02-21T14:45:25;4.97;;;1.38;;
29730;SDS011;16639;51.488;0.152;2024-02-21T14:47:52;2.83;;;1.40;;
29730;SDS011;16639;51.488;0.152;2024-02-21T14:50:20;18.58;;;2.13;;
29730;SDS011;16639;51.488;0.152;2024-02-21T14:52:47;3.95;;;1.70;;
29730;SDS011;16639;51.488;0.152;2024-02-21T14:55:15;4.15;;;1.40;;
29730;SDS011;16639;51.488;0.152;2024-02-21T14:57:42;1.35;;;0.98;;
29730;SDS011;16639;51.488;0.152;2024-02-21T15:00:11;5.07;;;2.08;;